createdAt,value
2022-08-11T00:00:12.051Z,2.63
2022-08-11T00:02:38.770Z,2.70
2022-08-11T00:05:05.461Z,2.80
2022-08-11T00:07:32.031Z,2.62
2022-08-11T00:09:58.555Z,2.57
2022-08-11T00:12:25.156Z,2.75
2022-08-11T00:14:51.662Z,2.58
2022-08-11T00:17:18.497Z,2.61
2022-08-11T00:20:11.685Z,2.71
2022-08-11T00:22:31.638Z,2.62
2022-08-11T00:25:02.207Z,2.39
2022-08-11T00:27:29.683Z,2.45
2022-08-11T00:29:56.474Z,2.64
2022-08-11T00:32:24.073Z,2.74
2022-08-11T00:34:50.918Z,2.81
2022-08-11T00:37:17.478Z,2.52
2022-08-11T00:39:45.222Z,2.84
2022-08-11T00:42:11.822Z,2.68
2022-08-11T00:44:38.452Z,2.47
2022-08-11T00:47:05.207Z,2.63
2022-08-11T00:49:31.739Z,2.54
2022-08-11T00:52:05.836Z,2.65
2022-08-11T00:54:33.277Z,2.64
2022-08-11T00:56:59.886Z,2.72
2022-08-11T00:59:35.385Z,2.66
2022-08-11T01:02:02.536Z,2.80
2022-08-11T01:04:29.043Z,2.38
2022-08-11T01:06:55.572Z,2.84
2022-08-11T01:09:22.997Z,2.56
2022-08-11T01:11:55.343Z,2.52
2022-08-11T01:14:34.159Z,2.42
2022-08-11T01:17:01.282Z,2.49
2022-08-11T01:19:27.828Z,2.52
2022-08-11T01:21:55.146Z,2.43
2022-08-11T01:24:22.757Z,2.56
2022-08-11T01:26:49.274Z,2.64
2022-08-11T01:29:15.801Z,2.66
2022-08-11T01:31:42.369Z,2.81
2022-08-11T01:34:08.954Z,2.95
2022-08-11T01:36:35.481Z,2.45
2022-08-11T01:39:02.016Z,2.40
2022-08-11T01:41:28.512Z,2.62
2022-08-11T01:43:55.187Z,2.40
2022-08-11T01:46:21.792Z,2.62
2022-08-11T01:48:48.305Z,2.54
2022-08-11T01:51:14.997Z,2.67
2022-08-11T01:53:43.832Z,2.68
2022-08-11T01:56:10.625Z,2.64
2022-08-11T01:58:43.824Z,2.59
2022-08-11T02:01:10.888Z,2.69
2022-08-11T02:03:37.747Z,2.48
2022-08-11T02:06:04.274Z,2.41
2022-08-11T02:08:32.885Z,2.76
2022-08-11T02:11:04.785Z,2.51
2022-08-11T02:13:36.572Z,2.73
2022-08-11T02:16:03.669Z,2.90
2022-08-11T02:18:30.563Z,2.77
2022-08-11T02:20:57.213Z,2.82
2022-08-11T02:24:03.697Z,2.87
2022-08-11T02:26:10.489Z,2.83
2022-08-11T02:28:40.138Z,2.88
2022-08-11T02:31:11.848Z,2.85
2022-08-11T02:33:58.594Z,2.83
2022-08-11T02:36:25.365Z,2.85
2022-08-11T02:38:51.930Z,2.74
2022-08-11T02:41:18.507Z,2.96
2022-08-11T02:43:47.999Z,2.72
2022-08-11T02:46:18.160Z,2.80
2022-08-11T02:48:46.142Z,2.95
2022-08-11T02:51:15.328Z,2.92
2022-08-11T02:53:56.160Z,2.79
2022-08-11T02:56:26.226Z,3.28
2022-08-11T02:58:52.830Z,3.02
2022-08-11T03:01:19.442Z,2.86
2022-08-11T03:03:46.019Z,3.24
2022-08-11T03:06:12.534Z,3.07
2022-08-11T03:08:39.116Z,2.99
2022-08-11T03:11:05.938Z,3.16
2022-08-11T03:13:32.485Z,3.29
2022-08-11T03:15:58.992Z,3.05
2022-08-11T03:18:25.471Z,3.22
2022-08-11T03:20:52.015Z,3.33
2022-08-11T03:23:20.384Z,3.24
2022-08-11T03:25:47.179Z,3.14
2022-08-11T03:28:13.725Z,3.29
2022-08-11T03:30:40.383Z,3.24
2022-08-11T03:33:07.000Z,3.34
2022-08-11T03:35:33.735Z,3.27
2022-08-11T03:38:00.340Z,3.21
2022-08-11T03:40:27.083Z,3.49
2022-08-11T03:42:53.622Z,3.49
2022-08-11T03:45:20.254Z,3.61
2022-08-11T03:47:52.397Z,3.44
2022-08-11T03:50:23.302Z,3.52
2022-08-11T03:52:50.125Z,3.41
2022-08-11T03:55:16.933Z,3.56
2022-08-11T03:57:43.698Z,3.54
2022-08-11T04:00:10.413Z,3.42
2022-08-11T04:02:37.301Z,3.53
2022-08-11T04:05:04.269Z,3.51
2022-08-11T04:07:30.872Z,3.63
2022-08-11T04:09:58.507Z,3.56
2022-08-11T04:12:36.031Z,3.67
2022-08-11T04:15:13.422Z,3.80
2022-08-11T04:17:40.127Z,3.82
2022-08-11T04:20:06.635Z,3.82
2022-08-11T04:22:34.167Z,3.56
2022-08-11T04:25:01.003Z,3.83
2022-08-11T04:27:36.830Z,3.58
2022-08-11T04:30:05.544Z,3.74
2022-08-11T04:32:32.487Z,3.52
2022-08-11T04:34:59.480Z,3.83
2022-08-11T04:37:26.015Z,3.77
2022-08-11T04:39:52.679Z,3.65
2022-08-11T04:42:19.372Z,3.63
2022-08-11T04:44:46.919Z,3.85
2022-08-11T04:47:13.504Z,3.98
2022-08-11T04:49:40.334Z,3.91
2022-08-11T04:52:06.900Z,4.19
2022-08-11T04:54:33.449Z,3.84
2022-08-11T04:57:02.820Z,3.88
2022-08-11T04:59:30.402Z,4.09
2022-08-11T05:01:57.108Z,3.73
2022-08-11T05:04:23.754Z,3.90
2022-08-11T05:06:50.358Z,3.82
2022-08-11T05:09:16.889Z,4.75
2022-08-11T05:11:43.682Z,4.36
2022-08-11T05:14:10.545Z,3.97
2022-08-11T05:16:37.447Z,3.83
2022-08-11T05:19:04.297Z,3.92
2022-08-11T05:21:30.909Z,3.80
2022-08-11T05:24:11.256Z,3.91
2022-08-11T05:26:46.382Z,3.67
2022-08-11T05:29:19.768Z,3.94
2022-08-11T05:31:47.348Z,4.40
2022-08-11T05:34:13.975Z,4.64
2022-08-11T05:36:41.462Z,4.85
2022-08-11T05:39:08.902Z,4.57
2022-08-11T05:41:35.556Z,4.31
2022-08-11T05:44:19.912Z,4.45
2022-08-11T05:46:48.524Z,3.81
2022-08-11T05:49:17.119Z,4.17
2022-08-11T05:51:53.634Z,4.10
2022-08-11T05:54:28.705Z,4.08
2022-08-11T05:56:56.157Z,3.92
2022-08-11T05:59:23.344Z,3.83
2022-08-11T06:01:49.961Z,3.83
2022-08-11T06:04:16.564Z,4.00
2022-08-11T06:06:46.799Z,3.96
2022-08-11T06:09:13.625Z,3.98
2022-08-11T06:11:44.183Z,3.74
2022-08-11T06:14:11.611Z,4.12
2022-08-11T06:16:38.125Z,3.94
2022-08-11T06:19:05.518Z,4.12
2022-08-11T06:21:32.090Z,3.82
2022-08-11T06:24:01.215Z,3.92
2022-08-11T06:26:27.905Z,3.60
2022-08-11T06:28:54.766Z,4.04
2022-08-11T06:31:22.138Z,3.94
2022-08-11T06:33:48.812Z,4.19
2022-08-11T06:36:15.328Z,3.91
2022-08-11T06:38:44.204Z,3.91
2022-08-11T06:41:10.831Z,3.62
2022-08-11T06:43:37.452Z,4.05
2022-08-11T06:46:04.006Z,4.15
2022-08-11T06:48:31.007Z,3.91
2022-08-11T06:50:57.566Z,3.68
2022-08-11T06:53:24.352Z,3.87
2022-08-11T06:55:56.835Z,3.92
2022-08-11T06:58:25.246Z,4.20
2022-08-11T07:00:51.855Z,4.06
2022-08-11T07:03:18.657Z,4.00
2022-08-11T07:05:45.248Z,4.07
2022-08-11T07:08:34.039Z,4.19
2022-08-11T07:10:58.677Z,4.07
2022-08-11T07:13:44.607Z,4.32
2022-08-11T07:16:14.030Z,4.35
2022-08-11T07:18:41.012Z,4.43
2022-08-11T07:22:00.440Z,4.42
2022-08-11T07:23:54.425Z,4.42
2022-08-11T07:26:21.030Z,4.55
2022-08-11T07:28:47.825Z,4.41
2022-08-11T07:31:14.717Z,4.51
2022-08-11T07:34:06.916Z,4.92
2022-08-11T07:36:28.563Z,4.62
2022-08-11T07:38:55.698Z,4.85
2022-08-11T07:41:22.280Z,4.69
2022-08-11T07:43:49.853Z,4.68
2022-08-11T07:46:16.455Z,4.23
2022-08-11T07:48:43.358Z,4.21
2022-08-11T07:51:12.297Z,4.02
2022-08-11T07:53:57.992Z,4.14
2022-08-11T07:56:54.099Z,4.51
2022-08-11T07:59:12.112Z,4.78
2022-08-11T08:01:40.049Z,5.90
2022-08-11T08:04:06.915Z,4.46
2022-08-11T08:06:36.191Z,4.27
2022-08-11T08:09:03.116Z,4.29
2022-08-11T08:11:29.752Z,4.11
2022-08-11T08:13:56.600Z,4.25
2022-08-11T08:16:23.229Z,4.30
2022-08-11T08:18:49.793Z,4.37
2022-08-11T08:21:16.610Z,4.11
2022-08-11T08:23:43.145Z,4.43
2022-08-11T08:26:16.947Z,4.34
2022-08-11T08:28:43.743Z,4.69
2022-08-11T08:31:10.483Z,4.53
2022-08-11T08:33:37.276Z,4.62
2022-08-11T08:36:04.144Z,4.75
2022-08-11T08:38:30.765Z,4.77
2022-08-11T08:40:57.448Z,4.93
2022-08-11T08:43:24.018Z,4.51
2022-08-11T08:45:50.677Z,4.65
2022-08-11T08:48:17.218Z,4.75
2022-08-11T08:50:43.916Z,4.79
2022-08-11T08:53:13.585Z,4.60
2022-08-11T08:55:45.356Z,4.43
2022-08-11T08:58:12.685Z,4.24
2022-08-11T09:00:39.330Z,4.60
2022-08-11T09:03:29.569Z,4.62
2022-08-11T09:05:55.193Z,4.59
2022-08-11T09:08:21.804Z,4.71
2022-08-11T09:10:48.758Z,4.84
2022-08-11T09:13:15.589Z,4.83
2022-08-11T09:15:42.161Z,4.70
2022-08-11T09:18:09.493Z,4.90
2022-08-11T09:20:36.154Z,5.18
2022-08-11T09:24:02.151Z,4.87
2022-08-11T09:25:51.752Z,5.07
2022-08-11T09:28:18.579Z,5.66
2022-08-11T09:30:45.092Z,5.03
2022-08-11T09:33:11.923Z,5.04
2022-08-11T09:35:38.479Z,4.93
2022-08-11T09:38:05.060Z,4.95
2022-08-11T09:40:32.384Z,4.76
2022-08-11T09:42:59.146Z,5.32
2022-08-11T09:45:28.137Z,5.74
2022-08-11T09:48:06.974Z,6.56
2022-08-11T09:50:33.547Z,5.24
2022-08-11T09:53:36.771Z,5.15
2022-08-11T09:55:47.796Z,5.07
2022-08-11T09:58:41.693Z,5.40
2022-08-11T10:01:02.503Z,5.56
2022-08-11T10:03:29.187Z,5.17
2022-08-11T10:05:56.008Z,5.05
2022-08-11T10:08:22.585Z,5.71
2022-08-11T10:10:49.205Z,5.91
2022-08-11T10:14:30.399Z,4.81
2022-08-11T10:16:14.676Z,5.71
2022-08-11T10:18:42.434Z,5.35
2022-08-11T10:21:09.046Z,5.31
2022-08-11T10:23:35.907Z,5.02
2022-08-11T10:26:22.590Z,5.33
2022-08-11T10:29:09.882Z,5.48
2022-08-11T10:31:45.101Z,5.24
2022-08-11T10:34:22.452Z,5.08
2022-08-11T10:36:51.381Z,5.01
2022-08-11T10:39:18.312Z,5.19
2022-08-11T10:42:02.827Z,5.37
2022-08-11T10:44:31.967Z,5.24
2022-08-11T10:46:58.811Z,5.34
2022-08-11T10:49:25.367Z,5.24
2022-08-11T10:51:53.769Z,5.35
2022-08-11T10:54:21.675Z,5.50
2022-08-11T10:56:48.425Z,5.71
2022-08-11T10:59:15.538Z,5.37
2022-08-11T11:01:42.966Z,5.16
2022-08-11T11:04:09.698Z,5.31
2022-08-11T11:06:36.299Z,5.40
2022-08-11T11:09:04.521Z,5.33
2022-08-11T11:11:31.920Z,4.77
2022-08-11T11:13:58.501Z,4.87
2022-08-11T11:16:25.580Z,4.79
2022-08-11T11:19:00.919Z,4.62
2022-08-11T11:21:27.955Z,4.77
2022-08-11T11:23:57.208Z,4.77
2022-08-11T11:26:27.486Z,4.84
2022-08-11T11:28:54.492Z,4.93
2022-08-11T11:31:21.390Z,5.07
2022-08-11T11:34:06.195Z,4.69
2022-08-11T11:36:33.657Z,5.13
2022-08-11T11:39:00.254Z,5.30
2022-08-11T11:41:26.817Z,4.86
2022-08-11T11:43:53.404Z,4.84
2022-08-11T11:46:20.252Z,4.56
2022-08-11T11:48:50.076Z,5.37
2022-08-11T11:51:17.297Z,5.33
2022-08-11T11:53:44.056Z,4.93
2022-08-11T11:56:10.506Z,4.06
2022-08-11T11:58:37.105Z,4.56
2022-08-11T12:01:05.943Z,4.58
2022-08-11T12:03:32.568Z,4.67
2022-08-11T12:05:59.399Z,4.60
2022-08-11T12:08:27.896Z,4.45
2022-08-11T12:10:54.622Z,4.50
2022-08-11T12:13:25.735Z,4.35
2022-08-11T12:16:23.829Z,4.28
2022-08-11T12:18:38.841Z,4.12
2022-08-11T12:21:08.103Z,4.47
2022-08-11T12:23:37.850Z,4.48
2022-08-11T12:26:26.009Z,4.55
2022-08-11T12:28:51.244Z,4.80
2022-08-11T12:31:18.031Z,5.21
2022-08-11T12:33:44.679Z,4.44
2022-08-11T12:36:11.561Z,4.65
2022-08-11T12:38:38.128Z,4.21
2022-08-11T12:41:15.728Z,4.23
2022-08-11T12:43:44.909Z,4.45
2022-08-11T12:46:23.758Z,4.65
2022-08-11T12:49:00.621Z,4.53
2022-08-11T12:51:28.397Z,4.47
2022-08-11T12:53:55.027Z,4.45
2022-08-11T12:56:21.541Z,4.91
2022-08-11T12:58:48.403Z,4.43
2022-08-11T13:01:16.610Z,4.25
2022-08-11T13:03:52.623Z,4.56
2022-08-11T13:06:26.511Z,4.64
2022-08-11T13:08:53.300Z,4.59
2022-08-11T13:14:02.702Z,4.52
2022-08-11T13:16:29.443Z,4.24
2022-08-11T13:18:56.134Z,4.54
2022-08-11T13:21:22.956Z,4.44
2022-08-11T13:24:00.814Z,4.41
2022-08-11T13:26:43.553Z,4.18
2022-08-11T13:29:15.001Z,4.55
2022-08-11T13:31:41.875Z,4.48
2022-08-11T13:34:08.506Z,4.41
2022-08-11T13:36:35.268Z,4.31
2022-08-11T13:39:03.312Z,4.59
2022-08-11T13:41:30.072Z,4.49
2022-08-11T13:44:15.521Z,4.58
2022-08-11T13:46:44.440Z,4.49
2022-08-11T13:49:13.290Z,4.33
2022-08-11T13:51:39.857Z,4.40
2022-08-11T13:54:06.683Z,4.47
2022-08-11T13:56:33.314Z,4.46
2022-08-11T13:58:59.897Z,4.38
2022-08-11T14:02:21.344Z,4.32
2022-08-11T14:04:30.734Z,4.72
2022-08-11T14:06:58.579Z,4.44
2022-08-11T14:09:27.048Z,4.53
2022-08-11T14:12:21.363Z,4.14
2022-08-11T14:14:40.676Z,4.59
2022-08-11T14:17:07.330Z,4.35
2022-08-11T14:19:33.854Z,4.42
2022-08-11T14:22:05.046Z,5.09
2022-08-11T14:24:33.744Z,4.37
2022-08-11T14:27:00.645Z,4.48
2022-08-11T14:29:27.316Z,4.16
2022-08-11T14:31:54.107Z,4.36
2022-08-11T14:34:20.645Z,4.36
2022-08-11T14:36:47.170Z,4.37
2022-08-11T14:39:13.780Z,4.33
2022-08-11T14:42:11.323Z,4.51
2022-08-11T14:44:27.493Z,4.29
2022-08-11T14:46:54.252Z,4.30
2022-08-11T14:49:21.052Z,4.44
2022-08-11T14:51:47.617Z,4.20
2022-08-11T14:54:14.169Z,4.47
2022-08-11T14:56:40.985Z,4.39
2022-08-11T14:59:08.182Z,4.33
2022-08-11T15:01:34.792Z,4.26
2022-08-11T15:04:25.038Z,4.32
2022-08-11T15:06:47.908Z,4.27
2022-08-11T15:09:14.482Z,4.12
2022-08-11T15:11:41.001Z,4.19
2022-08-11T15:14:07.511Z,4.42
2022-08-11T15:16:34.115Z,4.57
2022-08-11T15:19:00.689Z,4.47
2022-08-11T15:21:27.201Z,5.91
2022-08-11T15:23:53.813Z,4.32
2022-08-11T15:26:20.571Z,4.65
2022-08-11T15:28:47.126Z,4.68
2022-08-11T15:31:14.914Z,4.42
2022-08-11T15:33:41.464Z,4.13
2022-08-11T15:36:07.985Z,4.64
2022-08-11T15:38:34.864Z,4.06
2022-08-11T15:41:01.386Z,4.02
2022-08-11T15:43:29.327Z,4.46
2022-08-11T15:45:56.221Z,4.14
2022-08-11T15:48:23.078Z,4.45
2022-08-11T15:50:49.921Z,4.51
2022-08-11T15:53:16.478Z,4.68
2022-08-11T15:55:43.045Z,4.11
2022-08-11T15:58:09.631Z,4.23
2022-08-11T16:00:36.258Z,4.25
2022-08-11T16:03:02.759Z,4.02
2022-08-11T16:05:45.476Z,3.94
2022-08-11T16:08:13.320Z,3.95
2022-08-11T16:10:41.999Z,4.29
2022-08-11T16:13:11.400Z,4.34
2022-08-11T16:15:38.049Z,3.94
2022-08-11T16:18:05.619Z,4.15
2022-08-11T16:20:32.340Z,4.22
2022-08-11T16:23:02.113Z,3.83
2022-08-11T16:27:09.538Z,4.42
2022-08-11T16:28:16.145Z,4.63
2022-08-11T16:30:43.043Z,4.06
2022-08-11T16:33:48.428Z,4.29
2022-08-11T16:35:56.901Z,4.20
2022-08-11T16:38:23.428Z,4.36
2022-08-11T16:40:50.355Z,4.55
2022-08-11T16:43:17.071Z,4.95
2022-08-11T16:45:43.933Z,4.63
2022-08-11T16:48:35.133Z,4.87
2022-08-11T16:51:00.323Z,4.87
2022-08-11T16:54:00.190Z,4.65
2022-08-11T16:56:15.985Z,4.65
2022-08-11T16:58:43.539Z,4.49
2022-08-11T17:01:10.155Z,4.49
2022-08-11T17:03:37.590Z,4.64
2022-08-11T17:06:04.127Z,4.57
2022-08-11T17:08:30.688Z,4.59
2022-08-11T17:11:01.499Z,5.02
2022-08-11T17:13:30.104Z,4.78
2022-08-11T17:15:56.936Z,4.72
2022-08-11T17:18:23.532Z,5.21
2022-08-11T17:20:50.387Z,4.80
2022-08-11T17:23:16.919Z,4.87
2022-08-11T17:26:03.502Z,4.66
2022-08-11T17:28:30.230Z,4.53
2022-08-11T17:30:56.853Z,4.56
2022-08-11T17:33:23.558Z,4.84
2022-08-11T17:35:50.451Z,5.09
2022-08-11T17:38:16.971Z,4.99
2022-08-11T17:40:43.924Z,4.93
2022-08-11T17:43:10.842Z,4.83
2022-08-11T17:45:37.672Z,4.71
2022-08-11T17:48:04.270Z,4.88
2022-08-11T17:53:22.251Z,5.47
2022-08-11T17:55:51.595Z,5.17
2022-08-11T17:58:20.221Z,5.60
2022-08-11T18:00:46.787Z,5.34
2022-08-11T18:03:13.379Z,4.74
2022-08-11T18:05:42.073Z,4.70
2022-08-11T18:08:08.652Z,4.82
2022-08-11T18:10:40.079Z,4.66
2022-08-11T18:13:06.955Z,4.54
2022-08-11T18:15:33.530Z,4.80
2022-08-11T18:18:00.702Z,4.85
2022-08-11T18:20:27.214Z,4.76
2022-08-11T18:22:53.759Z,4.90
2022-08-11T18:25:20.343Z,4.88
2022-08-11T18:27:46.933Z,4.66
2022-08-11T18:30:13.525Z,4.66
2022-08-11T18:32:49.608Z,5.20
2022-08-11T18:35:16.717Z,4.77
2022-08-11T18:37:43.417Z,4.84
2022-08-11T18:40:10.000Z,4.77
2022-08-11T18:42:37.562Z,4.61
2022-08-11T18:45:04.496Z,5.12
2022-08-11T18:47:31.187Z,4.89
2022-08-11T18:50:03.836Z,5.05
2022-08-11T18:52:32.252Z,5.13
2022-08-11T18:54:58.931Z,5.25
2022-08-11T18:57:25.736Z,5.04
2022-08-11T18:59:52.299Z,4.91
2022-08-11T19:02:19.076Z,5.10
2022-08-11T19:04:45.569Z,5.25
2022-08-11T19:07:12.283Z,5.07
2022-08-11T19:09:39.689Z,5.09
2022-08-11T19:12:06.451Z,5.20
2022-08-11T19:14:34.022Z,5.21
2022-08-11T19:17:00.655Z,5.00
2022-08-11T19:19:28.011Z,5.46
2022-08-11T19:21:56.741Z,4.85
2022-08-11T19:24:23.530Z,4.81
2022-08-11T19:26:50.475Z,5.20
2022-08-11T19:30:08.106Z,5.53
2022-08-11T19:32:07.566Z,5.49
2022-08-11T19:34:34.358Z,5.39
2022-08-11T19:37:01.001Z,5.16
2022-08-11T19:39:28.433Z,5.21
2022-08-11T19:41:57.702Z,5.67
2022-08-11T19:44:26.642Z,5.52
2022-08-11T19:46:56.209Z,5.51
2022-08-11T19:49:23.014Z,5.45
2022-08-11T19:51:54.081Z,5.30
2022-08-11T19:54:21.302Z,5.16
2022-08-11T19:56:47.873Z,5.03
2022-08-11T19:59:18.270Z,5.15
2022-08-11T20:02:12.473Z,5.49
2022-08-11T20:04:31.533Z,5.80
2022-08-11T20:06:58.313Z,5.55
2022-08-11T20:09:25.124Z,5.34
2022-08-11T20:11:51.797Z,5.49
2022-08-11T20:14:18.332Z,5.30
2022-08-11T20:16:44.877Z,5.27
2022-08-11T20:19:11.444Z,5.16
2022-08-11T20:21:37.953Z,5.63
2022-08-11T20:24:04.585Z,5.64
2022-08-11T20:26:31.941Z,5.42
2022-08-11T20:28:58.580Z,5.42
2022-08-11T20:31:25.499Z,5.74
2022-08-11T20:33:52.080Z,5.40
2022-08-11T20:36:18.924Z,5.12
2022-08-11T20:38:45.512Z,5.49
2022-08-11T20:41:12.292Z,5.90
2022-08-11T20:44:07.657Z,5.62
2022-08-11T20:46:27.192Z,5.48
2022-08-11T20:48:53.996Z,5.47
2022-08-11T20:51:20.949Z,5.48
2022-08-11T20:53:51.858Z,5.44
2022-08-11T20:56:19.963Z,5.52
2022-08-11T20:59:16.762Z,5.70
2022-08-11T21:01:38.641Z,5.58
2022-08-11T21:04:07.850Z,5.43
2022-08-11T21:06:36.287Z,5.63
2022-08-11T21:09:04.172Z,5.91
2022-08-11T21:11:30.724Z,5.66
2022-08-11T21:13:57.487Z,5.76
2022-08-11T21:16:26.223Z,5.41
2022-08-11T21:18:53.543Z,5.60
2022-08-11T21:21:20.131Z,5.55
2022-08-11T21:23:46.696Z,5.55
2022-08-11T21:26:13.509Z,5.51
2022-08-11T21:28:40.027Z,5.55
2022-08-11T21:31:06.711Z,5.70
2022-08-11T21:33:33.272Z,5.51
2022-08-11T21:36:01.941Z,5.34
2022-08-11T21:38:28.857Z,5.58
2022-08-11T21:40:55.609Z,5.64
2022-08-11T21:43:22.192Z,5.62
2022-08-11T21:45:48.686Z,5.16
2022-08-11T21:48:17.412Z,5.35
2022-08-11T21:50:44.010Z,5.75
2022-08-11T21:53:10.578Z,5.53
2022-08-11T21:55:37.166Z,5.65
2022-08-11T21:58:03.944Z,5.39
2022-08-11T22:00:30.554Z,5.42
2022-08-11T22:02:57.217Z,5.38
2022-08-11T22:05:23.763Z,5.16
2022-08-11T22:07:50.682Z,5.66
2022-08-11T22:10:40.477Z,5.23
2022-08-11T22:13:03.778Z,5.30
2022-08-11T22:15:30.596Z,5.15
2022-08-11T22:17:58.112Z,5.23
2022-08-11T22:20:25.199Z,5.35
2022-08-11T22:22:52.980Z,5.37
2022-08-11T22:25:21.294Z,5.48
2022-08-11T22:27:49.982Z,5.47
2022-08-11T22:30:16.561Z,5.46
2022-08-11T22:32:43.789Z,5.20
2022-08-11T22:35:10.380Z,5.54
2022-08-11T22:37:36.898Z,5.12
2022-08-11T22:40:03.588Z,5.25
2022-08-11T22:42:33.258Z,5.29
2022-08-11T22:45:00.549Z,5.47
2022-08-11T22:47:27.492Z,5.33
2022-08-11T22:50:07.049Z,5.36
2022-08-11T22:52:33.984Z,5.07
2022-08-11T22:55:00.573Z,4.99
2022-08-11T22:57:27.871Z,5.08
2022-08-11T22:59:54.426Z,5.29
2022-08-11T23:02:21.254Z,5.12
2022-08-11T23:04:53.309Z,5.39
2022-08-11T23:07:27.620Z,5.45
2022-08-11T23:10:06.491Z,5.30
2022-08-11T23:12:33.082Z,5.01
2022-08-11T23:15:00.424Z,5.03
2022-08-11T23:17:27.237Z,5.17
2022-08-11T23:20:04.556Z,4.95
2022-08-11T23:22:50.221Z,5.37
2022-08-11T23:25:19.510Z,5.36
2022-08-11T23:27:46.109Z,5.38
2022-08-11T23:30:12.933Z,5.35
2022-08-11T23:32:39.652Z,5.35
2022-08-11T23:35:39.253Z,5.18
2022-08-11T23:37:53.219Z,5.41
2022-08-11T23:40:20.492Z,5.08
2022-08-11T23:42:49.745Z,5.12
2022-08-11T23:45:22.255Z,5.08
2022-08-11T23:47:50.283Z,5.16
2022-08-11T23:50:17.688Z,5.42
2022-08-11T23:52:44.161Z,5.19
2022-08-11T23:55:10.686Z,4.97
2022-08-11T23:57:37.230Z,5.08
